createdAt,value
2022-11-17T00:00:38.968Z,4.97
2022-11-17T00:03:05.493Z,4.94
2022-11-17T00:05:31.891Z,4.87
2022-11-17T00:07:58.427Z,4.85
2022-11-17T00:10:26.847Z,4.83
2022-11-17T00:13:11.962Z,4.84
2022-11-17T00:15:42.771Z,4.85
2022-11-17T00:18:27.709Z,4.86
2022-11-17T00:21:12.803Z,4.79
2022-11-17T00:23:48.465Z,4.80
2022-11-17T00:26:22.817Z,4.82
2022-11-17T00:28:54.250Z,4.88
2022-11-17T00:31:40.514Z,4.87
2022-11-17T00:34:07.724Z,4.95
2022-11-17T00:36:45.098Z,4.91
2022-11-17T00:39:13.003Z,4.83
2022-11-17T00:41:39.473Z,4.86
2022-11-17T00:44:06.454Z,4.91
2022-11-17T00:46:33.813Z,4.90
2022-11-17T00:49:00.399Z,4.89
2022-11-17T00:51:26.999Z,4.88
2022-11-17T00:53:53.989Z,4.90
2022-11-17T00:56:20.367Z,4.90
2022-11-17T00:58:46.775Z,4.86
2022-11-17T01:01:13.612Z,4.88
2022-11-17T01:03:40.159Z,4.90
2022-11-17T01:06:12.162Z,4.90
2022-11-17T01:08:38.955Z,4.87
2022-11-17T01:11:14.617Z,4.84
2022-11-17T01:13:42.270Z,4.89
2022-11-17T01:16:17.370Z,4.88
2022-11-17T01:18:45.711Z,4.84
2022-11-17T01:21:13.683Z,4.90
2022-11-17T01:23:42.244Z,4.85
2022-11-17T01:26:17.755Z,4.93
2022-11-17T01:28:44.543Z,4.93
2022-11-17T01:31:13.171Z,4.88
2022-11-17T01:33:40.303Z,4.80
2022-11-17T01:36:28.155Z,4.86
2022-11-17T01:38:54.952Z,4.81
2022-11-17T01:41:26.573Z,4.72
2022-11-17T01:43:58.520Z,4.70
2022-11-17T01:46:39.246Z,4.70
2022-11-17T01:49:13.811Z,4.73
2022-11-17T01:51:45.058Z,4.78
2022-11-17T01:54:13.189Z,4.75
2022-11-17T01:56:44.320Z,4.69
2022-11-17T01:59:25.383Z,4.68
2022-11-17T02:01:57.772Z,4.61
2022-11-17T02:04:29.897Z,4.61
2022-11-17T02:07:05.290Z,4.60
2022-11-17T02:09:35.365Z,4.65
2022-11-17T02:12:02.888Z,4.59
2022-11-17T02:14:29.297Z,4.65
2022-11-17T02:16:56.042Z,4.55
2022-11-17T02:19:26.945Z,4.58
2022-11-17T02:22:33.851Z,4.61
2022-11-17T02:25:29.662Z,4.61
2022-11-17T02:28:14.753Z,4.55
2022-11-17T02:30:51.977Z,4.52
2022-11-17T02:33:25.331Z,4.55
2022-11-17T02:36:07.792Z,4.54
2022-11-17T02:38:57.247Z,4.56
2022-11-17T02:41:30.630Z,4.54
2022-11-17T02:44:09.837Z,4.50
2022-11-17T02:46:51.168Z,4.54
2022-11-17T02:49:22.180Z,4.55
2022-11-17T02:51:52.315Z,4.60
2022-11-17T02:54:21.040Z,4.57
2022-11-17T02:56:47.408Z,4.62
2022-11-17T02:59:17.367Z,4.52
2022-11-17T03:02:10.954Z,4.55
2022-11-17T03:04:55.821Z,4.58
2022-11-17T03:07:37.501Z,4.59
2022-11-17T03:10:14.898Z,4.59
2022-11-17T03:12:53.679Z,4.54
2022-11-17T03:15:25.991Z,4.61
2022-11-17T03:18:04.244Z,4.58
2022-11-17T03:21:12.417Z,4.60
2022-11-17T03:24:05.368Z,4.58
2022-11-17T03:26:35.889Z,4.57
2022-11-17T03:29:06.569Z,4.64
2022-11-17T03:31:34.978Z,4.56
2022-11-17T03:34:05.130Z,4.60
2022-11-17T03:36:39.043Z,4.60
2022-11-17T03:39:19.382Z,4.58
2022-11-17T03:41:49.501Z,4.59
2022-11-17T03:44:19.779Z,4.58
2022-11-17T03:46:48.981Z,4.60
2022-11-17T03:49:25.851Z,4.55
2022-11-17T03:51:52.401Z,4.65
2022-11-17T03:54:18.920Z,4.62
2022-11-17T03:56:55.407Z,4.59
2022-11-17T03:59:31.482Z,4.58
2022-11-17T04:01:58.694Z,4.52
2022-11-17T04:04:45.326Z,4.51
2022-11-17T04:07:11.674Z,4.50
2022-11-17T04:09:38.159Z,4.52
2022-11-17T04:12:23.456Z,4.50
2022-11-17T04:15:08.415Z,4.54
2022-11-17T04:17:34.877Z,4.53
2022-11-17T04:20:01.288Z,4.48
2022-11-17T04:22:27.644Z,4.48
2022-11-17T04:24:54.014Z,4.50
2022-11-17T04:27:39.140Z,4.51
2022-11-17T04:30:05.876Z,4.55
2022-11-17T04:32:32.362Z,4.47
2022-11-17T04:34:58.736Z,4.42
2022-11-17T04:37:25.069Z,4.43
2022-11-17T04:39:51.437Z,4.39
2022-11-17T04:42:17.890Z,4.43
2022-11-17T04:44:44.242Z,4.41
2022-11-17T04:47:10.591Z,4.45
2022-11-17T04:49:36.902Z,4.46
2022-11-17T04:52:05.786Z,4.46
2022-11-17T04:54:32.220Z,4.42
2022-11-17T04:56:58.659Z,4.38
2022-11-17T04:59:25.161Z,4.41
2022-11-17T05:01:51.660Z,4.41
2022-11-17T05:04:39.781Z,4.43
2022-11-17T05:07:08.130Z,4.42
2022-11-17T05:09:34.820Z,4.39
2022-11-17T05:12:19.553Z,4.40
2022-11-17T05:14:48.979Z,4.42
2022-11-17T05:17:15.866Z,4.47
2022-11-17T05:19:46.925Z,4.43
2022-11-17T05:22:35.915Z,4.42
2022-11-17T05:25:04.890Z,4.41
2022-11-17T05:27:31.568Z,4.40
2022-11-17T05:29:57.898Z,4.40
2022-11-17T05:32:24.262Z,4.39
2022-11-17T05:34:50.831Z,4.38
2022-11-17T05:37:17.365Z,4.43
2022-11-17T05:39:43.733Z,4.47
2022-11-17T05:42:10.172Z,4.46
2022-11-17T05:44:36.586Z,4.41
2022-11-17T05:47:02.922Z,4.45
2022-11-17T05:49:29.269Z,4.42
2022-11-17T05:51:55.705Z,4.44
2022-11-17T05:54:22.087Z,4.45
2022-11-17T05:56:53.282Z,4.43
2022-11-17T05:59:28.421Z,4.44
2022-11-17T06:02:02.389Z,4.46
2022-11-17T06:04:28.933Z,4.41
2022-11-17T06:06:59.361Z,4.47
2022-11-17T06:09:28.638Z,4.45
2022-11-17T06:11:55.112Z,4.48
2022-11-17T06:14:21.473Z,4.52
2022-11-17T06:16:51.471Z,4.50
2022-11-17T06:19:27.119Z,4.48
2022-11-17T06:22:11.143Z,4.46
2022-11-17T06:24:39.102Z,4.50
2022-11-17T06:27:05.847Z,4.49
2022-11-17T06:29:32.408Z,4.50
2022-11-17T06:31:59.282Z,4.48
2022-11-17T06:34:27.555Z,4.55
2022-11-17T06:36:53.894Z,4.50
2022-11-17T06:39:20.300Z,4.57
2022-11-17T06:41:46.638Z,4.50
2022-11-17T06:44:13.006Z,4.56
2022-11-17T06:46:39.351Z,4.56
2022-11-17T06:49:07.485Z,4.56
2022-11-17T06:51:40.953Z,4.56
2022-11-17T06:54:12.327Z,4.56
2022-11-17T06:56:38.821Z,4.57
2022-11-17T06:59:05.369Z,4.54
2022-11-17T07:01:32.051Z,4.57
2022-11-17T07:03:58.549Z,4.53
2022-11-17T07:06:24.930Z,4.52
2022-11-17T07:08:51.365Z,4.50
2022-11-17T07:11:18.063Z,4.43
2022-11-17T07:13:44.819Z,4.44
2022-11-17T07:16:22.943Z,4.48
2022-11-17T07:18:50.492Z,4.46
2022-11-17T07:21:17.899Z,4.46
2022-11-17T07:23:45.646Z,4.51
2022-11-17T07:26:12.251Z,4.48
2022-11-17T07:28:39.033Z,4.50
2022-11-17T07:31:08.312Z,4.47
2022-11-17T07:33:35.463Z,4.50
2022-11-17T07:36:07.734Z,4.57
2022-11-17T07:38:35.725Z,4.52
2022-11-17T07:41:03.933Z,4.51
2022-11-17T07:43:31.243Z,4.52
2022-11-17T07:45:57.735Z,4.49
2022-11-17T07:48:24.368Z,4.48
2022-11-17T07:50:51.036Z,4.50
2022-11-17T07:53:17.625Z,4.53
2022-11-17T07:55:44.006Z,4.51
2022-11-17T07:58:10.555Z,4.53
2022-11-17T08:00:37.109Z,4.53
2022-11-17T08:03:04.354Z,4.57
2022-11-17T08:05:37.099Z,4.54
2022-11-17T08:08:07.969Z,4.58
2022-11-17T08:10:34.637Z,4.58
2022-11-17T08:13:01.250Z,4.59
2022-11-17T08:15:29.532Z,4.59
2022-11-17T08:17:58.154Z,4.57
2022-11-17T08:20:25.611Z,4.56
2022-11-17T08:22:53.074Z,4.59
2022-11-17T08:25:21.321Z,4.61
2022-11-17T08:27:51.868Z,4.61
2022-11-17T08:30:20.407Z,4.61
2022-11-17T08:32:49.212Z,4.64
2022-11-17T08:35:17.085Z,4.66
2022-11-17T08:37:43.517Z,4.70
2022-11-17T08:40:11.013Z,4.74
2022-11-17T08:42:37.666Z,4.78
2022-11-17T08:45:05.972Z,4.77
2022-11-17T08:47:32.417Z,4.83
2022-11-17T08:49:58.859Z,4.76
2022-11-17T08:52:27.688Z,4.83
2022-11-17T08:54:54.458Z,4.83
2022-11-17T08:57:23.855Z,4.85
2022-11-17T08:59:50.812Z,4.93
2022-11-17T09:02:17.801Z,4.95
2022-11-17T09:04:46.093Z,5.04
2022-11-17T09:07:12.641Z,5.02
2022-11-17T09:09:39.290Z,5.00
2022-11-17T09:12:05.962Z,5.05
2022-11-17T09:14:32.503Z,5.10
2022-11-17T09:16:59.287Z,5.12
2022-11-17T09:19:25.793Z,5.16
2022-11-17T09:21:52.229Z,5.25
2022-11-17T09:24:18.669Z,5.25
2022-11-17T09:26:45.108Z,5.20
2022-11-17T09:29:11.848Z,5.24
2022-11-17T09:31:38.702Z,5.32
2022-11-17T09:34:06.078Z,5.27
2022-11-17T09:36:33.035Z,5.37
2022-11-17T09:38:59.399Z,5.33
2022-11-17T09:41:38.424Z,5.31
2022-11-17T09:44:26.074Z,5.42
2022-11-17T09:46:55.643Z,5.39
2022-11-17T09:49:58.654Z,5.55
2022-11-17T09:52:36.993Z,5.59
2022-11-17T09:55:34.377Z,5.65
2022-11-17T09:58:03.896Z,5.60
2022-11-17T10:00:32.807Z,5.55
2022-11-17T10:02:59.312Z,5.58
2022-11-17T10:05:32.972Z,5.70
2022-11-17T10:08:03.454Z,5.70
2022-11-17T10:10:39.545Z,5.65
2022-11-17T10:13:14.310Z,5.68
2022-11-17T10:15:50.212Z,5.71
2022-11-17T10:18:17.449Z,5.77
2022-11-17T10:20:44.902Z,5.63
2022-11-17T10:23:19.477Z,5.75
2022-11-17T10:25:48.196Z,5.66
2022-11-17T10:28:32.312Z,5.70
2022-11-17T10:31:16.396Z,5.87
2022-11-17T10:33:45.953Z,5.93
2022-11-17T10:36:25.435Z,5.81
2022-11-17T10:38:54.291Z,5.92
2022-11-17T10:41:41.551Z,5.91
2022-11-17T10:44:25.097Z,6.01
2022-11-17T10:47:02.578Z,6.09
2022-11-17T10:49:40.340Z,6.13
2022-11-17T10:52:16.215Z,6.10
2022-11-17T10:54:43.215Z,6.22
2022-11-17T10:57:17.888Z,6.25
2022-11-17T10:59:57.182Z,6.30
2022-11-17T11:02:38.181Z,6.37
2022-11-17T11:05:13.373Z,6.34
2022-11-17T11:07:40.627Z,6.39
2022-11-17T11:10:34.469Z,6.38
2022-11-17T11:13:03.662Z,6.51
2022-11-17T11:15:34.172Z,6.60
2022-11-17T11:18:01.243Z,6.64
2022-11-17T11:20:53.861Z,6.70
2022-11-17T11:23:34.809Z,6.80
2022-11-17T11:26:16.318Z,6.99
2022-11-17T11:29:03.530Z,6.92
2022-11-17T11:31:35.903Z,7.02
2022-11-17T11:34:10.972Z,6.97
2022-11-17T11:36:47.307Z,7.01
2022-11-17T11:39:16.649Z,7.07
2022-11-17T11:42:08.134Z,7.13
2022-11-17T11:44:47.735Z,7.10
2022-11-17T11:47:47.791Z,7.14
2022-11-17T11:50:14.155Z,7.10
2022-11-17T11:52:46.199Z,7.05
2022-11-17T11:55:27.580Z,7.12
2022-11-17T11:58:02.515Z,7.02
2022-11-17T12:00:28.972Z,7.07
2022-11-17T12:03:04.545Z,7.04
2022-11-17T12:06:30.908Z,7.10
2022-11-17T12:09:18.956Z,7.08
2022-11-17T12:12:01.550Z,7.03
2022-11-17T12:14:29.475Z,7.11
2022-11-17T12:17:15.934Z,7.15
2022-11-17T12:19:53.845Z,7.23
2022-11-17T12:22:26.260Z,7.29
2022-11-17T12:24:57.854Z,7.34
2022-11-17T12:27:36.247Z,7.25
2022-11-17T12:30:05.874Z,7.44
2022-11-17T12:32:44.159Z,7.41
2022-11-17T12:35:24.273Z,7.36
2022-11-17T12:38:15.558Z,7.36
2022-11-17T12:40:45.083Z,7.40
2022-11-17T12:43:14.452Z,7.38
2022-11-17T12:45:53.047Z,7.44
2022-11-17T12:48:35.114Z,7.52
2022-11-17T12:51:23.339Z,7.70
2022-11-17T12:53:58.647Z,7.86
2022-11-17T12:56:43.841Z,9.26
2022-11-17T12:59:39.843Z,12.48
2022-11-17T13:02:40.716Z,12.21
2022-11-17T13:05:17.729Z,13.21
2022-11-17T13:07:44.285Z,13.85
2022-11-17T13:10:29.381Z,17.16
2022-11-17T13:13:19.631Z,17.24
2022-11-17T13:15:55.575Z,15.11
2022-11-17T13:18:41.941Z,15.17
2022-11-17T13:21:26.444Z,16.37
2022-11-17T13:23:53.693Z,13.63
2022-11-17T13:26:26.072Z,11.69
2022-11-17T13:29:13.231Z,10.69
2022-11-17T13:31:39.880Z,9.99
2022-11-17T13:34:12.759Z,9.78
2022-11-17T13:36:57.921Z,9.51
2022-11-17T13:39:27.878Z,9.51
2022-11-17T13:41:56.104Z,9.58
2022-11-17T13:44:24.637Z,11.90
2022-11-17T13:46:51.027Z,15.01
2022-11-17T13:49:37.009Z,16.82
2022-11-17T13:52:05.238Z,17.89
2022-11-17T13:54:33.036Z,15.55
2022-11-17T13:57:06.863Z,13.08
2022-11-17T13:59:38.915Z,11.40
2022-11-17T14:02:24.477Z,10.03
2022-11-17T14:05:26.411Z,9.52
2022-11-17T14:07:54.516Z,9.15
2022-11-17T14:10:20.797Z,8.95
2022-11-17T14:12:47.116Z,8.80
2022-11-17T14:15:24.575Z,8.73
2022-11-17T14:17:56.595Z,8.69
2022-11-17T14:20:25.891Z,8.69
2022-11-17T14:23:18.667Z,8.49
2022-11-17T14:25:50.004Z,8.49
2022-11-17T14:28:18.337Z,8.47
2022-11-17T14:30:48.360Z,8.39
2022-11-17T14:33:14.705Z,8.32
2022-11-17T14:35:41.789Z,8.46
2022-11-17T14:38:11.240Z,8.29
2022-11-17T14:40:37.639Z,8.51
2022-11-17T14:43:04.051Z,9.93
2022-11-17T14:45:30.688Z,9.89
2022-11-17T14:47:57.124Z,9.67
2022-11-17T14:50:23.497Z,9.37
2022-11-17T14:52:49.909Z,8.97
2022-11-17T14:55:16.352Z,8.54
2022-11-17T14:57:42.878Z,8.35
2022-11-17T15:00:13.411Z,8.22
2022-11-17T15:02:42.309Z,8.20
2022-11-17T15:05:08.863Z,8.23
2022-11-17T15:07:35.275Z,8.15
2022-11-17T15:10:01.719Z,8.12
2022-11-17T15:12:29.736Z,8.00
2022-11-17T15:14:57.580Z,7.82
2022-11-17T15:17:25.259Z,7.75
2022-11-17T15:19:51.926Z,7.66
2022-11-17T15:22:18.467Z,7.64
2022-11-17T15:24:45.162Z,7.63
2022-11-17T15:27:12.342Z,7.56
2022-11-17T15:29:38.790Z,7.43
2022-11-17T15:32:05.677Z,7.43
2022-11-17T15:34:32.074Z,7.33
2022-11-17T15:36:58.470Z,7.33
2022-11-17T15:39:24.920Z,7.19
2022-11-17T15:41:51.828Z,7.07
2022-11-17T15:44:20.848Z,7.08
2022-11-17T15:46:48.066Z,6.97
2022-11-17T15:49:15.369Z,6.88
2022-11-17T15:51:42.155Z,6.88
2022-11-17T15:54:15.119Z,6.78
2022-11-17T15:56:46.297Z,6.78
2022-11-17T15:59:12.794Z,6.71
2022-11-17T16:01:40.491Z,6.70
2022-11-17T16:04:12.471Z,6.65
2022-11-17T16:06:41.227Z,6.69
2022-11-17T16:09:08.197Z,6.61
2022-11-17T16:11:35.157Z,6.64
2022-11-17T16:14:02.609Z,6.56
2022-11-17T16:16:31.595Z,6.48
2022-11-17T16:18:58.292Z,6.46
2022-11-17T16:21:25.106Z,6.49
2022-11-17T16:23:54.648Z,6.51
2022-11-17T16:26:22.421Z,6.47
2022-11-17T16:28:49.003Z,6.46
2022-11-17T16:31:15.471Z,6.43
2022-11-17T16:33:47.945Z,6.41
2022-11-17T16:36:14.291Z,6.38
2022-11-17T16:38:49.882Z,6.33
2022-11-17T16:41:28.948Z,6.34
2022-11-17T16:43:57.535Z,6.37
2022-11-17T16:46:26.361Z,6.38
2022-11-17T16:48:53.461Z,6.32
2022-11-17T16:51:20.906Z,6.30
2022-11-17T16:53:54.247Z,6.24
2022-11-17T16:56:20.584Z,6.20
2022-11-17T16:58:49.170Z,6.15
2022-11-17T17:01:24.026Z,6.16
2022-11-17T17:03:56.256Z,6.13
2022-11-17T17:06:22.993Z,6.11
2022-11-17T17:08:59.913Z,6.14
2022-11-17T17:11:27.815Z,6.19
2022-11-17T17:13:56.158Z,6.10
2022-11-17T17:16:22.971Z,6.04
2022-11-17T17:18:54.355Z,6.06
2022-11-17T17:21:20.796Z,6.08
2022-11-17T17:23:47.253Z,6.04
2022-11-17T17:26:18.073Z,5.99
2022-11-17T17:28:46.888Z,6.00
2022-11-17T17:31:20.734Z,5.97
2022-11-17T17:33:48.528Z,5.97
2022-11-17T17:36:17.748Z,5.97
2022-11-17T17:38:44.199Z,5.95
2022-11-17T17:41:22.274Z,5.89
2022-11-17T17:43:54.957Z,5.90
2022-11-17T17:46:21.416Z,5.98
2022-11-17T17:48:47.923Z,6.00
2022-11-17T17:51:17.368Z,5.96
2022-11-17T17:53:44.141Z,5.90
2022-11-17T17:56:13.577Z,5.88
2022-11-17T17:58:41.218Z,5.97
2022-11-17T18:01:15.888Z,5.93
2022-11-17T18:03:45.634Z,5.94
2022-11-17T18:06:13.279Z,5.87
2022-11-17T18:08:40.011Z,5.84
2022-11-17T18:11:12.676Z,5.86
2022-11-17T18:13:41.698Z,5.93
2022-11-17T18:16:29.856Z,5.89
2022-11-17T18:19:08.383Z,5.80
2022-11-17T18:21:35.339Z,5.83
2022-11-17T18:24:03.163Z,5.80
2022-11-17T18:26:32.474Z,5.77
2022-11-17T18:29:01.764Z,5.81
2022-11-17T18:31:30.545Z,5.79
2022-11-17T18:34:02.639Z,5.75
2022-11-17T18:36:30.488Z,5.70
2022-11-17T18:38:58.568Z,5.72
2022-11-17T18:41:26.282Z,5.74
2022-11-17T18:43:54.593Z,5.77
2022-11-17T18:46:22.416Z,5.70
2022-11-17T18:48:53.455Z,5.68
2022-11-17T18:51:24.881Z,5.65
2022-11-17T18:53:54.034Z,5.68
2022-11-17T18:56:22.638Z,5.67
2022-11-17T18:58:49.161Z,5.62
2022-11-17T19:01:21.137Z,5.56
2022-11-17T19:03:50.506Z,5.55
2022-11-17T19:06:18.244Z,5.51
2022-11-17T19:08:45.502Z,5.51
2022-11-17T19:11:12.517Z,5.47
2022-11-17T19:13:40.578Z,5.57
2022-11-17T19:16:25.188Z,5.52
2022-11-17T19:18:54.527Z,5.56
2022-11-17T19:21:31.702Z,5.55
2022-11-17T19:24:00.617Z,5.60
2022-11-17T19:26:32.327Z,5.54
2022-11-17T19:29:01.052Z,5.54
2022-11-17T19:31:28.205Z,5.51
2022-11-17T19:33:55.268Z,5.60
2022-11-17T19:36:24.021Z,5.61
2022-11-17T19:38:52.804Z,5.63
2022-11-17T19:41:24.848Z,5.61
2022-11-17T19:43:55.690Z,5.61
2022-11-17T19:46:23.917Z,5.61
2022-11-17T19:48:50.898Z,5.60
2022-11-17T19:51:22.911Z,5.65
2022-11-17T19:53:51.716Z,5.61
2022-11-17T19:56:19.887Z,5.58
2022-11-17T19:58:46.714Z,5.54
2022-11-17T20:01:21.316Z,5.54
2022-11-17T20:03:49.030Z,5.54
2022-11-17T20:06:17.819Z,5.54
2022-11-17T20:08:45.275Z,5.51
2022-11-17T20:11:14.340Z,5.52
2022-11-17T20:13:41.495Z,5.51
2022-11-17T20:16:12.506Z,5.47
2022-11-17T20:18:40.371Z,5.46
2022-11-17T20:21:07.587Z,5.45
2022-11-17T20:23:35.577Z,5.45
2022-11-17T20:26:11.634Z,5.40
2022-11-17T20:28:38.488Z,5.42
2022-11-17T20:31:13.949Z,5.39
2022-11-17T20:33:42.226Z,5.41
2022-11-17T20:36:11.936Z,5.41
2022-11-17T20:38:38.361Z,5.46
2022-11-17T20:41:05.127Z,5.43
2022-11-17T20:43:32.278Z,5.38
2022-11-17T20:45:59.235Z,5.33
2022-11-17T20:48:26.384Z,5.27
2022-11-17T20:51:09.501Z,5.29
2022-11-17T20:53:36.347Z,5.29
2022-11-17T20:56:06.088Z,5.36
2022-11-17T20:58:33.540Z,5.31
2022-11-17T21:01:07.106Z,5.34
2022-11-17T21:03:33.889Z,5.37
2022-11-17T21:06:02.022Z,5.39
2022-11-17T21:08:30.964Z,5.42
2022-11-17T21:10:59.263Z,5.38
2022-11-17T21:13:27.582Z,5.34
2022-11-17T21:16:14.149Z,5.35
2022-11-17T21:18:49.455Z,5.41
2022-11-17T21:21:16.928Z,5.42
2022-11-17T21:23:44.648Z,5.37
2022-11-17T21:26:13.872Z,5.36
2022-11-17T21:28:41.307Z,5.38
2022-11-17T21:31:11.361Z,5.37
2022-11-17T21:33:38.640Z,5.44
2022-11-17T21:36:13.612Z,5.40
2022-11-17T21:38:40.290Z,5.42
2022-11-17T21:41:12.020Z,5.47
2022-11-17T21:43:40.155Z,5.51
2022-11-17T21:46:09.577Z,5.45
2022-11-17T21:48:37.316Z,5.47
2022-11-17T21:51:13.821Z,5.57
2022-11-17T21:53:41.465Z,5.54
2022-11-17T21:56:08.214Z,5.50
2022-11-17T21:58:34.727Z,5.56
2022-11-17T22:01:12.428Z,5.54
2022-11-17T22:03:40.183Z,5.63
2022-11-17T22:06:14.937Z,5.55
2022-11-17T22:08:42.943Z,5.64
2022-11-17T22:11:12.192Z,5.56
2022-11-17T22:13:39.217Z,5.59
2022-11-17T22:16:09.765Z,5.63
2022-11-17T22:18:37.771Z,5.69
2022-11-17T22:21:05.186Z,5.72
2022-11-17T22:23:31.624Z,5.74
2022-11-17T22:26:00.628Z,5.78
2022-11-17T22:28:27.420Z,5.83
2022-11-17T22:30:54.498Z,5.79
2022-11-17T22:33:22.573Z,5.79
2022-11-17T22:35:50.114Z,5.79
2022-11-17T22:38:17.165Z,5.76
2022-11-17T22:40:43.978Z,5.78
2022-11-17T22:43:14.907Z,5.73
2022-11-17T22:45:42.127Z,5.74
2022-11-17T22:48:08.985Z,5.75
2022-11-17T22:50:36.120Z,5.72
2022-11-17T22:53:02.993Z,5.79
2022-11-17T22:55:29.820Z,5.82
2022-11-17T22:57:56.335Z,5.82
2022-11-17T23:00:23.103Z,5.92
2022-11-17T23:02:49.745Z,5.87
2022-11-17T23:05:16.633Z,5.82
2022-11-17T23:07:43.269Z,5.72
2022-11-17T23:10:10.543Z,5.68
2022-11-17T23:12:37.124Z,5.62
2022-11-17T23:15:04.108Z,5.62
2022-11-17T23:17:30.738Z,5.66
2022-11-17T23:19:57.264Z,5.70
2022-11-17T23:22:23.594Z,5.66
2022-11-17T23:24:50.036Z,5.64
2022-11-17T23:27:16.587Z,5.65
2022-11-17T23:29:43.227Z,5.62
2022-11-17T23:32:09.873Z,5.57
2022-11-17T23:34:36.256Z,5.55
2022-11-17T23:37:04.111Z,5.57
2022-11-17T23:39:30.703Z,5.56
2022-11-17T23:41:57.095Z,5.53
2022-11-17T23:44:23.500Z,5.49
2022-11-17T23:46:49.957Z,5.58
2022-11-17T23:49:17.541Z,5.57
2022-11-17T23:51:44.475Z,5.52
2022-11-17T23:54:12.195Z,5.52
2022-11-17T23:56:38.919Z,5.51
2022-11-17T23:59:05.639Z,5.47
